Time;durP1;ratioP1;P1;durP2;ratioP2;P2;SDS_P1;SDS_P2;PMS_P1;PMS_P2;Temp;Humidity;BMP_temperature;BMP_pressure;BME280_temperature;BME280_humidity;BME280_pressure;Samples;Min_cycle;Max_cycle;Signal;HPM_P1;HPM_P2
2022/04/14 00:00:15;;;;;;;11.87;7.27;;;;;;;;;;5096899;28;20060;-70
2022/04/14 00:02:41;;;;;;;10.73;6.73;;;;;;;;;;5098034;28;20055;-70
2022/04/14 00:05:08;;;;;;;13.27;7.50;;;;;;;;;;5099213;28;20063;-69
2022/04/14 00:07:36;;;;;;;11.37;7.27;;;;;;;;;;5102509;28;20166;-68
2022/04/14 00:10:04;;;;;;;11.70;7.97;;;;;;;;;;5101110;28;20019;-69
2022/04/14 00:12:31;;;;;;;15.07;8.13;;;;;;;;;;5110323;28;20114;-69
2022/04/14 00:14:57;;;;;;;11.90;8.50;;;;;;;;;;5113044;28;20020;-69
2022/04/14 00:17:24;;;;;;;13.20;7.97;;;;;;;;;;5108603;28;20060;-68
2022/04/14 00:19:51;;;;;;;12.60;8.40;;;;;;;;;;5107490;28;20024;-68
2022/04/14 00:22:18;;;;;;;19.20;8.23;;;;;;;;;;5107041;28;20466;-69
2022/04/14 00:24:44;;;;;;;15.57;8.33;;;;;;;;;;5107198;28;20509;-69
2022/04/14 00:27:11;;;;;;;16.40;8.27;;;;;;;;;;5110096;28;20055;-69
2022/04/14 00:29:38;;;;;;;21.17;10.50;;;;;;;;;;5111334;28;20085;-69
2022/04/14 00:32:04;;;;;;;13.10;8.70;;;;;;;;;;5112698;28;20022;-68
2022/04/14 00:34:32;;;;;;;10.30;7.90;;;;;;;;;;5112676;28;20026;-68
2022/04/14 00:36:59;;;;;;;16.83;8.80;;;;;;;;;;5112676;28;20502;-68
2022/04/14 00:39:26;;;;;;;14.43;8.80;;;;;;;;;;5109033;28;20367;-67
2022/04/14 00:41:52;;;;;;;18.23;9.90;;;;;;;;;;5107018;28;20043;-67
2022/04/14 00:44:19;;;;;;;13.43;8.83;;;;;;;;;;5107196;28;20127;-67
2022/04/14 00:46:46;;;;;;;18.57;9.03;;;;;;;;;;5107068;28;20043;-66
2022/04/14 00:49:13;;;;;;;14.07;8.33;;;;;;;;;;5108928;28;20031;-66
2022/04/14 00:51:40;;;;;;;29.17;8.93;;;;;;;;;;5112491;28;20023;-66
2022/04/14 00:54:06;;;;;;;15.27;8.93;;;;;;;;;;5108803;28;20475;-67
2022/04/14 00:56:33;;;;;;;15.03;8.60;;;;;;;;;;5104515;28;20103;-66
2022/04/14 00:59:00;;;;;;;11.13;7.53;;;;;;;;;;5105589;28;20359;-66
2022/04/14 01:01:27;;;;;;;14.13;8.13;;;;;;;;;;5109009;28;20020;-67
2022/04/14 01:03:53;;;;;;;13.07;8.50;;;;;;;;;;5112157;28;20015;-66
2022/04/14 01:06:23;;;;;;;15.20;8.07;;;;;;;;;;5108219;28;20110;-66
2022/04/14 01:11:36;;;;;;;12.67;7.37;;;;;;;;;;5111208;28;20115;-66
2022/04/14 01:14:08;;;;;;;9.93;7.60;;;;;;;;;;5098908;28;20055;-65
2022/04/14 01:16:35;;;;;;;11.07;8.30;;;;;;;;;;5112279;28;20360;-66
2022/04/14 01:19:05;;;;;;;12.00;7.93;;;;;;;;;;5109677;28;20028;-66
2022/04/14 01:21:33;;;;;;;12.10;7.73;;;;;;;;;;5106310;28;20024;-67
2022/04/14 01:23:59;;;;;;;10.57;7.73;;;;;;;;;;5110022;28;20047;-67
2022/04/14 01:26:26;;;;;;;11.67;7.70;;;;;;;;;;5106733;28;20016;-67
2022/04/14 01:28:57;;;;;;;11.10;7.33;;;;;;;;;;5111783;28;20031;-67
2022/04/14 01:31:24;;;;;;;9.17;6.57;;;;;;;;;;5113509;28;20031;-67
2022/04/14 01:33:51;;;;;;;13.67;8.10;;;;;;;;;;5114758;28;20193;-68
2022/04/14 01:36:19;;;;;;;9.67;6.67;;;;;;;;;;5118227;28;20032;-68
2022/04/14 01:38:46;;;;;;;11.93;6.70;;;;;;;;;;5118844;28;20029;-68
2022/04/14 01:41:13;;;;;;;9.10;6.10;;;;;;;;;;5118445;28;20102;-69
2022/04/14 01:43:40;;;;;;;8.80;6.70;;;;;;;;;;5104383;28;20058;-68
2022/04/14 01:46:08;;;;;;;7.27;5.33;;;;;;;;;;5117048;28;20024;-66
2022/04/14 01:48:38;;;;;;;11.00;6.83;;;;;;;;;;5113571;28;20040;-67
2022/04/14 01:51:05;;;;;;;12.30;6.93;;;;;;;;;;5113526;28;20020;-67
2022/04/14 01:53:32;;;;;;;10.60;7.03;;;;;;;;;;5110212;28;20039;-67
2022/04/14 01:55:58;;;;;;;11.00;6.90;;;;;;;;;;5113567;28;20035;-67
2022/04/14 01:58:25;;;;;;;10.27;6.57;;;;;;;;;;5118767;28;20019;-67
2022/04/14 02:00:52;;;;;;;10.00;6.77;;;;;;;;;;5118299;28;20378;-67
2022/04/14 02:03:19;;;;;;;9.70;7.10;;;;;;;;;;5118854;28;20020;-67
2022/04/14 02:05:45;;;;;;;11.20;7.00;;;;;;;;;;5118186;28;20028;-67
2022/04/14 02:08:12;;;;;;;11.07;8.13;;;;;;;;;;5113808;28;20023;-67
2022/04/14 02:10:39;;;;;;;10.47;7.60;;;;;;;;;;5110102;28;20032;-67
2022/04/14 02:13:05;;;;;;;11.97;7.23;;;;;;;;;;5110107;28;20135;-67
2022/04/14 02:15:32;;;;;;;12.80;8.20;;;;;;;;;;5109622;28;20020;-67
2022/04/14 02:17:59;;;;;;;16.13;7.80;;;;;;;;;;5109546;28;20106;-67
2022/04/14 02:20:25;;;;;;;12.20;6.70;;;;;;;;;;5108856;28;20016;-67
2022/04/14 02:22:52;;;;;;;11.67;7.17;;;;;;;;;;5104525;28;20352;-67
2022/04/14 02:25:19;;;;;;;14.00;7.53;;;;;;;;;;5105224;28;20017;-66
2022/04/14 02:27:45;;;;;;;10.33;6.73;;;;;;;;;;5103367;28;20107;-67
2022/04/14 02:30:12;;;;;;;10.63;7.57;;;;;;;;;;5107266;28;20110;-66
2022/04/14 02:32:39;;;;;;;13.87;6.80;;;;;;;;;;5100701;28;20027;-67
2022/04/14 02:35:06;;;;;;;8.60;6.10;;;;;;;;;;5097855;28;20100;-66
2022/04/14 02:37:33;;;;;;;10.27;6.20;;;;;;;;;;5098681;28;20016;-66
2022/04/14 02:40:00;;;;;;;7.47;5.60;;;;;;;;;;5099769;28;20080;-66
2022/04/14 02:42:26;;;;;;;9.07;6.00;;;;;;;;;;5103648;28;20113;-67
2022/04/14 02:44:53;;;;;;;8.83;5.67;;;;;;;;;;5104428;28;20016;-66
2022/04/14 02:47:20;;;;;;;9.43;6.03;;;;;;;;;;5111842;28;20077;-66
2022/04/14 02:49:46;;;;;;;8.37;5.77;;;;;;;;;;5114896;28;20481;-66
2022/04/14 02:52:13;;;;;;;13.10;5.70;;;;;;;;;;5114470;28;20059;-66
2022/04/14 02:54:40;;;;;;;7.60;5.20;;;;;;;;;;5109427;28;20035;-66
2022/04/14 02:57:07;;;;;;;9.07;5.53;;;;;;;;;;5100038;28;20081;-67
2022/04/14 02:59:34;;;;;;;11.67;6.73;;;;;;;;;;5103025;28;20027;-66
2022/04/14 03:02:01;;;;;;;10.53;6.10;;;;;;;;;;5109250;28;20106;-66
2022/04/14 03:04:29;;;;;;;10.97;7.07;;;;;;;;;;5112256;28;20028;-66
2022/04/14 03:06:56;;;;;;;8.97;6.20;;;;;;;;;;5114432;28;20027;-66
2022/04/14 03:09:23;;;;;;;10.17;6.97;;;;;;;;;;5111158;28;20038;-66
2022/04/14 03:11:50;;;;;;;11.03;6.93;;;;;;;;;;5100822;28;20486;-66
2022/04/14 03:14:17;;;;;;;11.37;7.20;;;;;;;;;;5101645;28;20043;-65
2022/04/14 03:16:43;;;;;;;12.10;6.90;;;;;;;;;;5090242;28;20073;-66
2022/04/14 03:19:10;;;;;;;11.20;6.80;;;;;;;;;;5087592;28;20567;-68
2022/04/14 03:21:37;;;;;;;9.47;6.20;;;;;;;;;;5093497;28;20105;-66
2022/04/14 03:24:03;;;;;;;9.30;7.20;;;;;;;;;;5098802;28;20110;-66
2022/04/14 03:26:30;;;;;;;11.30;6.77;;;;;;;;;;5099255;28;20028;-65
2022/04/14 03:28:57;;;;;;;10.50;5.73;;;;;;;;;;5103200;28;20034;-65
2022/04/14 03:31:24;;;;;;;11.57;6.43;;;;;;;;;;5102006;28;20016;-66
2022/04/14 03:33:51;;;;;;;10.53;6.70;;;;;;;;;;5103197;28;20117;-66
2022/04/14 03:36:17;;;;;;;13.33;7.03;;;;;;;;;;5101213;28;20432;-65
2022/04/14 03:38:44;;;;;;;8.20;5.60;;;;;;;;;;5092429;28;20024;-65
2022/04/14 03:41:11;;;;;;;10.70;6.83;;;;;;;;;;5089127;28;20058;-65
2022/04/14 03:43:37;;;;;;;10.37;6.10;;;;;;;;;;5095989;28;20076;-65
2022/04/14 03:46:04;;;;;;;11.03;5.77;;;;;;;;;;5107988;28;20042;-66
2022/04/14 03:48:31;;;;;;;10.33;5.90;;;;;;;;;;5109725;28;20026;-65
2022/04/14 03:50:58;;;;;;;6.93;5.00;;;;;;;;;;5113455;28;20051;-65
2022/04/14 03:53:25;;;;;;;10.77;6.37;;;;;;;;;;5113204;28;20031;-65
2022/04/14 03:55:52;;;;;;;7.90;5.10;;;;;;;;;;5113492;28;20023;-66
2022/04/14 03:58:19;;;;;;;9.57;5.40;;;;;;;;;;5113305;28;20365;-65
2022/04/14 04:00:46;;;;;;;7.07;5.00;;;;;;;;;;5111451;28;20081;-65
2022/04/14 04:03:13;;;;;;;13.17;5.53;;;;;;;;;;5107707;28;20020;-66
2022/04/14 04:05:41;;;;;;;9.87;6.67;;;;;;;;;;5107937;28;20024;-66
2022/04/14 04:08:08;;;;;;;13.17;7.57;;;;;;;;;;5107683;28;20027;-66
2022/04/14 04:10:35;;;;;;;13.90;7.43;;;;;;;;;;5108130;28;20027;-65
2022/04/14 04:13:02;;;;;;;9.90;6.73;;;;;;;;;;5113018;28;20043;-66
2022/04/14 04:15:28;;;;;;;13.30;7.60;;;;;;;;;;5113248;28;20038;-65
2022/04/14 04:17:55;;;;;;;13.23;6.53;;;;;;;;;;5112856;28;20020;-65
2022/04/14 04:20:22;;;;;;;11.47;7.27;;;;;;;;;;5112753;28;20098;-65
2022/04/14 04:22:49;;;;;;;11.40;6.70;;;;;;;;;;5111965;28;20534;-65
2022/04/14 04:25:16;;;;;;;10.63;6.80;;;;;;;;;;5107370;28;20028;-65
2022/04/14 04:27:42;;;;;;;10.20;5.97;;;;;;;;;;5107688;28;20104;-66
2022/04/14 04:30:09;;;;;;;11.43;6.27;;;;;;;;;;5107312;28;20085;-65
2022/04/14 04:32:36;;;;;;;9.13;6.80;;;;;;;;;;5107334;28;20086;-66
2022/04/14 04:35:03;;;;;;;10.20;6.47;;;;;;;;;;5112182;28;20024;-65
2022/04/14 04:37:30;;;;;;;10.97;6.30;;;;;;;;;;5112860;28;20027;-65
2022/04/14 04:39:57;;;;;;;9.07;6.27;;;;;;;;;;5112327;28;20102;-65
2022/04/14 04:42:24;;;;;;;7.80;5.60;;;;;;;;;;5112505;28;20081;-66
2022/04/14 04:44:51;;;;;;;8.97;6.33;;;;;;;;;;5112828;28;20038;-65
2022/04/14 04:47:20;;;;;;;9.90;6.23;;;;;;;;;;5106531;28;20406;-65
2022/04/14 04:49:47;;;;;;;8.10;6.17;;;;;;;;;;5107318;28;20110;-65
2022/04/14 04:52:14;;;;;;;8.07;6.17;;;;;;;;;;5107230;28;20502;-65
2022/04/14 04:54:41;;;;;;;10.63;6.87;;;;;;;;;;5106836;28;20118;-67
2022/04/14 04:57:08;;;;;;;9.13;7.03;;;;;;;;;;5111258;28;20024;-65
2022/04/14 04:59:34;;;;;;;14.33;7.20;;;;;;;;;;5112216;28;20051;-67
2022/04/14 05:02:01;;;;;;;13.57;8.80;;;;;;;;;;5112602;28;20028;-65
2022/04/14 05:04:28;;;;;;;18.50;10.53;;;;;;;;;;5112502;28;20478;-66
2022/04/14 05:06:54;;;;;;;13.63;8.73;;;;;;;;;;5112609;28;20103;-67
2022/04/14 05:09:23;;;;;;;12.07;8.23;;;;;;;;;;5107794;28;20069;-67
2022/04/14 05:11:50;;;;;;;11.60;8.57;;;;;;;;;;5106763;28;20122;-67
2022/04/14 05:14:17;;;;;;;11.83;7.67;;;;;;;;;;5107043;28;20067;-67
2022/04/14 05:16:44;;;;;;;9.73;8.10;;;;;;;;;;5106860;28;20019;-68
2022/04/14 05:19:10;;;;;;;10.50;7.63;;;;;;;;;;5110273;28;20039;-67
2022/04/14 05:21:37;;;;;;;10.40;7.97;;;;;;;;;;5111715;28;20657;-67
2022/04/14 05:24:04;;;;;;;13.17;7.90;;;;;;;;;;5112178;28;20027;-67
2022/04/14 05:26:31;;;;;;;12.13;8.03;;;;;;;;;;5112268;28;20355;-67
2022/04/14 05:28:57;;;;;;;12.50;8.27;;;;;;;;;;5111755;28;20051;-68
2022/04/14 05:31:24;;;;;;;11.87;9.03;;;;;;;;;;5109194;28;20034;-67
2022/04/14 05:33:51;;;;;;;14.47;7.90;;;;;;;;;;5106181;28;20039;-67
2022/04/14 05:36:19;;;;;;;10.10;7.57;;;;;;;;;;5106763;28;20474;-67
2022/04/14 05:38:45;;;;;;;10.53;8.00;;;;;;;;;;5106861;28;20448;-67
2022/04/14 05:41:12;;;;;;;9.63;7.60;;;;;;;;;;5109299;28;20027;-67
2022/04/14 05:43:38;;;;;;;14.07;7.97;;;;;;;;;;5111367;28;20032;-67
2022/04/14 05:46:05;;;;;;;10.07;7.33;;;;;;;;;;5109417;28;20110;-68
2022/04/14 05:48:32;;;;;;;9.60;7.30;;;;;;;;;;5115571;28;20120;-67
2022/04/14 05:50:59;;;;;;;10.47;8.17;;;;;;;;;;5115856;28;20032;-68
2022/04/14 05:53:27;;;;;;;11.03;8.13;;;;;;;;;;5093995;28;20036;-68
2022/04/14 05:55:54;;;;;;;9.70;7.70;;;;;;;;;;5101784;28;20498;-66
2022/04/14 05:58:20;;;;;;;13.80;8.33;;;;;;;;;;5110386;28;20493;-66
2022/04/14 06:00:47;;;;;;;9.80;7.30;;;;;;;;;;5091153;28;20479;-63
2022/04/14 06:03:14;;;;;;;10.90;7.57;;;;;;;;;;5110489;28;20524;-67
2022/04/14 06:05:41;;;;;;;12.10;7.50;;;;;;;;;;5113979;28;20062;-67
2022/04/14 06:08:08;;;;;;;10.73;8.03;;;;;;;;;;5114900;28;20031;-67
2022/04/14 06:10:35;;;;;;;11.73;7.53;;;;;;;;;;5115049;28;20031;-66
2022/04/14 06:13:03;;;;;;;8.67;7.20;;;;;;;;;;5115328;28;20027;-66
2022/04/14 06:15:31;;;;;;;12.50;8.07;;;;;;;;;;5113249;28;20019;-66
2022/04/14 06:17:58;;;;;;;11.47;8.33;;;;;;;;;;5109701;28;20039;-66
2022/04/14 06:20:25;;;;;;;10.80;8.00;;;;;;;;;;5109411;28;20019;-66
2022/04/14 06:22:52;;;;;;;11.93;8.97;;;;;;;;;;5106727;28;20024;-65
2022/04/14 06:25:22;;;;;;;11.63;8.07;;;;;;;;;;5109529;28;20463;-67
2022/04/14 06:27:50;;;;;;;10.73;8.27;;;;;;;;;;5111690;28;20115;-67
2022/04/14 06:30:18;;;;;;;12.47;8.60;;;;;;;;;;5105081;28;20055;-67
2022/04/14 06:33:05;;;;;;;12.30;8.13;;;;;;;;;;5103198;28;20023;-67
2022/04/14 06:35:31;;;;;;;13.37;9.37;;;;;;;;;;5104054;28;20130;-67
2022/04/14 06:37:58;;;;;;;12.60;8.57;;;;;;;;;;5113129;28;20058;-67
2022/04/14 06:40:26;;;;;;;10.37;7.67;;;;;;;;;;5105476;28;20032;-67
2022/04/14 06:42:52;;;;;;;10.43;6.80;;;;;;;;;;5102036;28;20436;-67
2022/04/14 06:45:19;;;;;;;10.40;8.40;;;;;;;;;;5109176;28;20055;-67
2022/04/14 06:47:46;;;;;;;13.10;8.83;;;;;;;;;;5104630;28;20035;-67
2022/04/14 06:50:13;;;;;;;12.40;7.60;;;;;;;;;;5107132;28;20390;-67
2022/04/14 06:52:40;;;;;;;12.00;9.00;;;;;;;;;;5114298;28;20557;-67
2022/04/14 06:55:08;;;;;;;13.47;8.40;;;;;;;;;;5095032;28;20107;-68
2022/04/14 06:57:34;;;;;;;10.13;7.27;;;;;;;;;;5094332;28;20020;-67
2022/04/14 07:00:01;;;;;;;11.87;8.10;;;;;;;;;;5109050;28;20034;-65
2022/04/14 07:02:31;;;;;;;17.73;8.50;;;;;;;;;;5109237;28;20020;-65
2022/04/14 07:05:01;;;;;;;13.50;9.37;;;;;;;;;;5107355;28;20166;-66
2022/04/14 07:07:27;;;;;;;9.43;7.80;;;;;;;;;;5107560;28;20028;-66
2022/04/14 07:09:54;;;;;;;12.17;8.60;;;;;;;;;;5106986;28;20020;-65
2022/04/14 07:12:21;;;;;;;11.87;8.60;;;;;;;;;;5112110;28;20385;-66
2022/04/14 07:14:48;;;;;;;9.93;7.97;;;;;;;;;;5112385;28;20028;-67
2022/04/14 07:17:16;;;;;;;11.20;8.30;;;;;;;;;;5112172;28;20044;-67
2022/04/14 07:19:44;;;;;;;8.73;7.03;;;;;;;;;;5113466;28;20031;-67
2022/04/14 07:22:11;;;;;;;9.50;7.87;;;;;;;;;;5113785;28;20024;-67
2022/04/14 07:24:38;;;;;;;11.50;8.60;;;;;;;;;;5108662;28;20023;-67
2022/04/14 07:27:04;;;;;;;11.17;7.70;;;;;;;;;;5109049;28;20370;-67
2022/04/14 07:29:31;;;;;;;9.30;7.43;;;;;;;;;;5107923;28;20376;-67
2022/04/14 07:31:58;;;;;;;10.03;8.60;;;;;;;;;;5108098;28;20028;-67
2022/04/14 07:34:24;;;;;;;15.90;7.53;;;;;;;;;;5112344;28;20081;-67
2022/04/14 07:36:52;;;;;;;9.07;7.47;;;;;;;;;;5113812;28;20024;-67
2022/04/14 07:39:18;;;;;;;13.50;8.27;;;;;;;;;;5113641;28;20421;-67
2022/04/14 07:41:45;;;;;;;12.90;7.73;;;;;;;;;;5113814;28;20023;-67
2022/04/14 07:44:12;;;;;;;12.07;8.43;;;;;;;;;;5113517;28;20058;-64
2022/04/14 07:46:38;;;;;;;13.10;8.83;;;;;;;;;;5109276;28;20598;-64
2022/04/14 07:49:06;;;;;;;13.33;9.10;;;;;;;;;;5108090;28;20019;-64
2022/04/14 07:51:33;;;;;;;10.23;8.30;;;;;;;;;;5107609;28;20035;-64
2022/04/14 07:54:00;;;;;;;11.87;8.27;;;;;;;;;;5108098;28;20039;-65
2022/04/14 07:56:26;;;;;;;10.07;8.47;;;;;;;;;;5110809;28;20035;-64
2022/04/14 07:58:53;;;;;;;9.77;7.90;;;;;;;;;;5113719;28;20031;-65
2022/04/14 08:01:20;;;;;;;14.27;8.80;;;;;;;;;;5113300;28;20462;-65
2022/04/14 08:03:47;;;;;;;8.93;7.80;;;;;;;;;;5113055;28;20528;-64
2022/04/14 08:06:14;;;;;;;10.23;7.23;;;;;;;;;;5112974;28;21456;-64
2022/04/14 08:08:41;;;;;;;14.33;8.27;;;;;;;;;;5109705;28;20601;-65
2022/04/14 08:11:08;;;;;;;13.63;9.30;;;;;;;;;;5107441;28;20374;-64
2022/04/14 08:13:37;;;;;;;14.27;8.33;;;;;;;;;;5107291;28;20051;-64
2022/04/14 08:16:09;;;;;;;10.47;7.03;;;;;;;;;;5107681;28;20035;-65
2022/04/14 08:18:40;;;;;;;9.93;7.63;;;;;;;;;;5110368;28;20072;-65
2022/04/14 08:21:07;;;;;;;9.27;6.87;;;;;;;;;;5112490;28;20030;-64
2022/04/14 08:23:38;;;;;;;8.33;6.93;;;;;;;;;;5113241;28;20027;-64
2022/04/14 08:26:08;;;;;;;13.73;9.27;;;;;;;;;;5112559;28;20033;-64
2022/04/14 08:28:41;;;;;;;8.70;6.67;;;;;;;;;;5112931;28;20085;-64
2022/04/14 08:31:11;;;;;;;11.57;7.23;;;;;;;;;;5108684;28;20035;-64
2022/04/14 08:33:38;;;;;;;13.37;7.57;;;;;;;;;;5106997;28;20051;-65
2022/04/14 08:36:12;;;;;;;15.43;7.87;;;;;;;;;;5107248;28;20019;-64
2022/04/14 08:38:39;;;;;;;11.73;7.25;;;;;;;;;;5106897;28;20485;-66
2022/04/14 08:41:08;;;;;;;11.93;8.03;;;;;;;;;;5109957;28;20020;-65
2022/04/14 08:43:36;;;;;;;11.47;7.70;;;;;;;;;;5112813;28;20020;-64
2022/04/14 08:46:04;;;;;;;9.73;7.47;;;;;;;;;;5112732;28;20486;-64
2022/04/14 08:48:31;;;;;;;11.47;8.43;;;;;;;;;;5112663;28;20020;-65
2022/04/14 08:50:58;;;;;;;8.90;6.77;;;;;;;;;;5112842;28;20039;-64
2022/04/14 08:53:25;;;;;;;8.77;5.97;;;;;;;;;;5108172;28;20027;-65
2022/04/14 08:55:52;;;;;;;8.57;6.90;;;;;;;;;;5107130;28;20098;-66
2022/04/14 08:58:26;;;;;;;9.93;6.73;;;;;;;;;;5106811;28;20050;-65
2022/04/14 09:00:54;;;;;;;13.30;8.10;;;;;;;;;;5107267;28;20027;-65
2022/04/14 09:03:21;;;;;;;14.43;8.60;;;;;;;;;;5109929;28;20019;-66
2022/04/14 09:05:48;;;;;;;9.83;7.43;;;;;;;;;;5112208;28;20023;-66
2022/04/14 09:08:15;;;;;;;10.77;7.80;;;;;;;;;;5112016;28;20492;-66
2022/04/14 09:10:41;;;;;;;15.17;7.87;;;;;;;;;;5112691;28;20020;-66
2022/04/14 09:13:08;;;;;;;13.87;8.30;;;;;;;;;;5112518;28;20382;-66
2022/04/14 09:15:35;;;;;;;14.50;7.97;;;;;;;;;;5109995;28;20027;-66
2022/04/14 09:18:02;;;;;;;11.57;8.20;;;;;;;;;;5110956;28;20386;-66
2022/04/14 09:20:36;;;;;;;10.57;8.17;;;;;;;;;;5110979;28;20102;-66
2022/04/14 09:23:20;;;;;;;11.20;7.97;;;;;;;;;;5110922;28;20027;-66
2022/04/14 09:25:48;;;;;;;10.63;7.57;;;;;;;;;;5113877;28;20016;-66
2022/04/14 09:28:16;;;;;;;9.07;6.83;;;;;;;;;;5115945;28;20049;-67
2022/04/14 09:31:03;;;;;;;10.03;6.90;;;;;;;;;;5116244;28;20416;-66
2022/04/14 09:33:30;;;;;;;11.43;7.43;;;;;;;;;;5115970;28;20027;-66
2022/04/14 09:36:08;;;;;;;9.13;6.93;;;;;;;;;;5115967;28;20437;-67
2022/04/14 09:39:01;;;;;;;11.43;7.27;;;;;;;;;;5111647;28;20055;-66
2022/04/14 09:41:40;;;;;;;9.47;7.07;;;;;;;;;;5106757;28;20118;-67
2022/04/14 09:44:10;;;;;;;11.30;7.23;;;;;;;;;;5110483;28;20057;-65
2022/04/14 09:46:37;;;;;;;10.40;5.87;;;;;;;;;;5110455;28;20027;-65
2022/04/14 09:49:11;;;;;;;9.03;6.97;;;;;;;;;;5115310;28;20073;-65
2022/04/14 09:51:39;;;;;;;11.83;7.63;;;;;;;;;;5115408;28;20051;-66
2022/04/14 09:54:14;;;;;;;9.97;7.20;;;;;;;;;;5115994;28;20036;-65
2022/04/14 09:56:45;;;;;;;13.55;8.02;;;;;;;;;;5115995;28;20151;-66
2022/04/14 09:59:12;;;;;;;13.13;7.73;;;;;;;;;;5115187;28;20106;-66
2022/04/14 10:01:39;;;;;;;10.37;6.77;;;;;;;;;;5110092;28;20058;-66
2022/04/14 10:04:07;;;;;;;10.70;6.97;;;;;;;;;;5109806;28;20020;-66
2022/04/14 10:06:34;;;;;;;12.70;7.80;;;;;;;;;;5110024;28;20077;-65
2022/04/14 10:09:02;;;;;;;12.50;7.83;;;;;;;;;;5110242;28;20504;-66
2022/04/14 10:11:37;;;;;;;10.23;6.83;;;;;;;;;;5114916;28;20016;-63
2022/04/14 10:14:10;;;;;;;9.63;6.60;;;;;;;;;;5115421;28;20024;-65
2022/04/14 10:16:39;;;;;;;10.00;7.20;;;;;;;;;;5115290;28;20051;-66
2022/04/14 10:19:06;;;;;;;10.17;5.83;;;;;;;;;;5115588;28;20058;-64
2022/04/14 10:21:34;;;;;;;9.77;6.17;;;;;;;;;;5114768;28;20051;-63
2022/04/14 10:24:01;;;;;;;7.30;5.07;;;;;;;;;;5109226;28;20024;-63
2022/04/14 10:26:29;;;;;;;7.70;5.33;;;;;;;;;;5109344;28;20030;-63
2022/04/14 10:28:56;;;;;;;6.07;4.70;;;;;;;;;;5108736;28;20084;-63
2022/04/14 10:31:24;;;;;;;9.47;5.33;;;;;;;;;;5109296;28;20746;-63
2022/04/14 10:33:51;;;;;;;7.50;5.40;;;;;;;;;;5114415;28;20043;-63
2022/04/14 10:36:18;;;;;;;7.73;5.57;;;;;;;;;;5114750;28;20038;-63
2022/04/14 10:38:46;;;;;;;6.17;4.77;;;;;;;;;;5114965;28;20019;-63
2022/04/14 10:41:18;;;;;;;11.53;4.93;;;;;;;;;;5114812;28;20024;-64
2022/04/14 10:43:46;;;;;;;8.97;5.40;;;;;;;;;;5115095;28;20028;-63
2022/04/14 10:46:17;;;;;;;7.07;4.77;;;;;;;;;;5109114;28;20048;-63
2022/04/14 10:48:47;;;;;;;7.80;5.10;;;;;;;;;;5109050;28;20079;-65
2022/04/14 10:51:24;;;;;;;7.73;5.37;;;;;;;;;;5109375;28;20023;-64
2022/04/14 10:53:59;;;;;;;8.77;5.30;;;;;;;;;;5109011;28;20028;-65
2022/04/14 10:56:34;;;;;;;10.35;6.03;;;;;;;;;;5114853;28;20526;-67
2022/04/14 10:59:05;;;;;;;9.23;6.43;;;;;;;;;;5114098;28;20042;-66
2022/04/14 11:01:47;;;;;;;9.97;6.20;;;;;;;;;;5114226;28;20359;-66
2022/04/14 11:04:32;;;;;;;8.97;7.00;;;;;;;;;;5109007;28;20069;-67
2022/04/14 11:07:01;;;;;;;8.20;6.57;;;;;;;;;;5103708;28;20416;-67
2022/04/14 11:09:48;;;;;;;9.97;6.43;;;;;;;;;;5096853;28;20020;-67
2022/04/14 11:12:24;;;;;;;10.00;6.23;;;;;;;;;;5100518;28;20514;-67
2022/04/14 11:14:51;;;;;;;11.90;6.27;;;;;;;;;;5095100;28;20834;-67
2022/04/14 11:17:32;;;;;;;9.93;5.70;;;;;;;;;;5097613;28;20019;-66
2022/04/14 11:20:17;;;;;;;7.40;5.20;;;;;;;;;;5102633;28;20024;-64
2022/04/14 11:23:03;;;;;;;8.98;5.60;;;;;;;;;;5105866;28;20061;-66
2022/04/14 11:25:42;;;;;;;7.70;5.53;;;;;;;;;;5107634;28;20031;-66
2022/04/14 11:28:15;;;;;;;7.13;5.23;;;;;;;;;;5113853;28;20027;-66
2022/04/14 11:30:42;;;;;;;7.40;5.17;;;;;;;;;;5109549;28;20034;-66
2022/04/14 11:33:13;;;;;;;9.30;5.57;;;;;;;;;;5107981;28;20055;-67
2022/04/14 11:35:45;;;;;;;8.57;5.43;;;;;;;;;;5107684;28;20036;-66
2022/04/14 11:38:31;;;;;;;10.47;6.17;;;;;;;;;;5108031;28;20743;-66
2022/04/14 11:40:58;;;;;;;7.63;5.60;;;;;;;;;;5111116;28;20049;-66
2022/04/14 11:43:25;;;;;;;7.20;4.97;;;;;;;;;;5094658;28;20449;-66
2022/04/14 11:45:52;;;;;;;11.07;5.37;;;;;;;;;;5113036;28;20028;-65
2022/04/14 11:48:25;;;;;;;8.97;5.83;;;;;;;;;;5113444;28;20028;-65
2022/04/14 11:50:56;;;;;;;8.80;6.03;;;;;;;;;;5112862;28;20490;-66
2022/04/14 11:53:30;;;;;;;9.70;5.93;;;;;;;;;;5109738;28;20031;-66
2022/04/14 11:55:56;;;;;;;10.00;6.43;;;;;;;;;;5107549;28;20375;-66
2022/04/14 11:58:23;;;;;;;11.53;6.90;;;;;;;;;;5108183;28;20640;-66
2022/04/14 12:00:51;;;;;;;8.20;6.20;;;;;;;;;;5108097;28;20034;-66
2022/04/14 12:03:31;;;;;;;8.13;5.57;;;;;;;;;;5110786;28;20018;-66
2022/04/14 12:06:02;;;;;;;13.50;5.30;;;;;;;;;;5113120;28;20084;-67
2022/04/14 12:08:29;;;;;;;8.80;5.27;;;;;;;;;;5111403;28;20054;-66
2022/04/14 12:10:56;;;;;;;11.73;6.50;;;;;;;;;;5112935;28;20078;-67
2022/04/14 12:13:24;;;;;;;10.83;6.80;;;;;;;;;;5112764;28;20016;-66
2022/04/14 12:16:02;;;;;;;10.67;5.40;;;;;;;;;;5109902;28;20031;-66
2022/04/14 12:18:29;;;;;;;10.27;5.70;;;;;;;;;;5107301;28;20011;-63
2022/04/14 12:20:56;;;;;;;9.27;6.40;;;;;;;;;;5107187;28;20027;-63
2022/04/14 12:23:23;;;;;;;9.03;6.90;;;;;;;;;;5107593;28;20379;-65
2022/04/14 12:25:52;;;;;;;7.53;5.47;;;;;;;;;;5110030;28;20015;-65
2022/04/14 12:28:19;;;;;;;10.00;6.03;;;;;;;;;;5112409;28;20027;-66
2022/04/14 12:30:46;;;;;;;10.53;5.60;;;;;;;;;;5112507;28;20035;-66
2022/04/14 12:33:13;;;;;;;7.90;5.70;;;;;;;;;;5112862;28;20497;-66
2022/04/14 12:35:43;;;;;;;9.80;6.17;;;;;;;;;;5112372;28;20027;-66
2022/04/14 12:38:16;;;;;;;15.63;7.77;;;;;;;;;;5096378;28;20031;-64
2022/04/14 12:41:00;;;;;;;12.97;7.37;;;;;;;;;;5092266;28;20024;-64
2022/04/14 12:43:28;;;;;;;6.70;5.63;;;;;;;;;;5106145;28;20403;-64
2022/04/14 12:45:55;;;;;;;8.07;5.40;;;;;;;;;;5092983;28;20012;-67
2022/04/14 12:48:28;;;;;;;8.03;5.73;;;;;;;;;;5097807;28;20016;-67
2022/04/14 12:50:58;;;;;;;12.43;5.50;;;;;;;;;;5101054;28;20024;-67
2022/04/14 12:53:34;;;;;;;10.20;6.60;;;;;;;;;;5103195;28;20078;-67
2022/04/14 12:56:10;;;;;;;10.93;7.00;;;;;;;;;;5100184;28;20020;-63
2022/04/14 12:58:37;;;;;;;14.83;7.07;;;;;;;;;;5111579;28;20023;-68
2022/04/14 13:01:12;;;;;;;9.37;6.77;;;;;;;;;;5110190;28;20027;-67
2022/04/14 13:03:45;;;;;;;9.98;7.10;;;;;;;;;;5106689;28;20355;-63
2022/04/14 13:06:16;;;;;;;11.13;6.47;;;;;;;;;;5092173;28;20642;-64
2022/04/14 13:08:43;;;;;;;10.57;6.70;;;;;;;;;;5086669;28;20019;-68
2022/04/14 13:11:11;;;;;;;11.87;6.93;;;;;;;;;;5088231;28;20016;-68
2022/04/14 13:13:37;;;;;;;10.63;7.07;;;;;;;;;;5096773;28;20134;-68
2022/04/14 13:16:05;;;;;;;10.70;7.23;;;;;;;;;;5112173;28;20423;-68
2022/04/14 13:18:32;;;;;;;12.17;6.00;;;;;;;;;;5111855;28;20047;-65
2022/04/14 13:20:59;;;;;;;7.73;6.10;;;;;;;;;;5112005;28;20028;-67
2022/04/14 13:23:25;;;;;;;12.33;7.70;;;;;;;;;;5110518;28;20059;-67
2022/04/14 13:25:53;;;;;;;12.33;7.70;;;;;;;;;;5105779;28;20073;-67
2022/04/14 13:28:20;;;;;;;9.13;6.60;;;;;;;;;;5107018;28;20904;-67
2022/04/14 13:30:48;;;;;;;10.43;7.10;;;;;;;;;;5106868;28;20438;-67
2022/04/14 13:33:15;;;;;;;7.83;6.13;;;;;;;;;;5106796;28;20062;-67
2022/04/14 13:35:43;;;;;;;10.87;7.30;;;;;;;;;;5111793;28;20028;-67
2022/04/14 13:38:09;;;;;;;9.13;6.00;;;;;;;;;;5111312;28;20494;-67
2022/04/14 13:40:36;;;;;;;9.87;5.50;;;;;;;;;;5111509;28;20028;-67
2022/04/14 13:43:03;;;;;;;9.40;5.47;;;;;;;;;;5111015;28;20020;-67
2022/04/14 13:45:30;;;;;;;9.27;6.07;;;;;;;;;;5111376;28;20712;-67
2022/04/14 13:47:56;;;;;;;8.93;6.30;;;;;;;;;;5106251;28;20037;-64
2022/04/14 13:50:24;;;;;;;8.47;6.63;;;;;;;;;;5106536;28;20020;-64
2022/04/14 13:52:51;;;;;;;11.43;6.97;;;;;;;;;;5104909;28;20034;-64
2022/04/14 13:55:20;;;;;;;11.30;7.60;;;;;;;;;;5102269;28;20135;-66
2022/04/14 13:57:47;;;;;;;11.63;7.77;;;;;;;;;;5109881;28;20089;-66
2022/04/14 14:00:15;;;;;;;16.10;7.70;;;;;;;;;;5110021;28;20529;-66
2022/04/14 14:02:42;;;;;;;13.73;7.93;;;;;;;;;;5112015;28;20181;-66
2022/04/14 14:05:10;;;;;;;10.93;7.00;;;;;;;;;;5115218;28;20073;-67
2022/04/14 14:07:40;;;;;;;10.33;6.97;;;;;;;;;;5114358;28;20030;-67
2022/04/14 14:10:07;;;;;;;15.30;7.73;;;;;;;;;;5111303;28;20141;-66
2022/04/14 14:12:39;;;;;;;12.57;7.70;;;;;;;;;;5109232;28;20051;-67
2022/04/14 14:15:06;;;;;;;11.80;7.73;;;;;;;;;;5109478;28;20040;-67
2022/04/14 14:17:38;;;;;;;10.90;8.00;;;;;;;;;;5109650;28;20024;-67
2022/04/14 14:20:08;;;;;;;12.13;8.43;;;;;;;;;;5112832;28;20481;-67
2022/04/14 14:22:35;;;;;;;13.87;7.60;;;;;;;;;;5114269;28;20023;-67
2022/04/14 14:25:01;;;;;;;10.00;7.30;;;;;;;;;;5114016;28;20026;-67
2022/04/14 14:27:28;;;;;;;19.00;7.70;;;;;;;;;;5114034;28;20367;-67
2022/04/14 14:29:56;;;;;;;10.80;6.50;;;;;;;;;;5114061;28;20038;-67
2022/04/14 14:32:25;;;;;;;10.17;6.60;;;;;;;;;;5111381;28;20605;-67
2022/04/14 14:34:52;;;;;;;9.43;5.67;;;;;;;;;;5107879;28;20038;-67
2022/04/14 14:37:19;;;;;;;7.77;5.67;;;;;;;;;;5108861;28;20081;-67
2022/04/14 14:39:47;;;;;;;8.97;6.77;;;;;;;;;;5097915;28;20028;-67
2022/04/14 14:42:15;;;;;;;9.40;6.67;;;;;;;;;;5111061;28;20011;-67